Flight Number: EUR1023 Duration: 7:12
Departure: Gatwick Airport (EGKK) at 07:00 Distance: 510 Nm
Arrival: Innsbruck (LOWI) at 08:30 Equipment: B737

Weather Information
London / Gatwick Airport, United Kingdom (EGKK) 51-09N 000-11W 0M May 20, 2018 - 09:50 AM EDT / 2018.05.20 1350 UTC
Wind: from the ENE (070 degrees) at 8 MPH (7 KT) (direction variable):0
Visibility: greater than 7 mile(s):0 Temperature: 66 F (19 C) Dew Point: 51 F (11 C) Relative Humidity: 59% Pressure (altimeter): 30.15 in. Hg (1021 hPa)
ob: EGKK 201350Z 07007KT 020V110 CAVOK 19/11 Q1021 cycle: 14
Sunrise: 04:06 Sunset: 19:47 (UTC)

Innsbruck-Flughafen, Austria (LOWI) 47-16N 011-21E 593M May 20, 2018 - 09:50 AM EDT / 2018.05.20 1350 UTC
Wind: from the E (080 degrees) at 12 MPH (10 KT) (direction variable):0
Visibility: greater than 7 mile(s):0
Sky conditions: mostly cloudy Temperature: 66 F (19 C) Dew Point: 51 F (11 C) Relative Humidity: 59% Pressure (altimeter): 30.00 in. Hg (1016 hPa)
ob: LOWI 201350Z 08010KT 040V120 9999 FEW040 SCT070 BKN120 19/11 Q1016 NOSIG cycle: 14
Sunrise: 03:35 Sunset: 18:46 (UTC)

TAF:2018/05/20 12:21 TAF LOWI 201115Z 2012/2112 09005KT 9999 FEW030 BKN100 TX24/2112Z TN10/2104Z TEMPO 2012/2018 27012G25KT SHRA FEW040TCU BKN050 TEMPO 2100/2106 FEW005 SCT010 BKN030

Previous Pireps for this route
Date Aircraft Flight time Fuel used Landing rate On time
2012-08-06B73701.4510500-917No
2012-08-11A3211.45120000No
2012-09-16A32101.4614000-2046No
2012-11-14A32101.459708-444Yes
2012-12-02A32101.4710383-483Yes
2013-01-03MD-8101.3712169-199Charter
2013-05-14A32101.319241-465Yes
2013-10-27A32101.4210237-287Charter
2014-01-31A3211.449440-520Yes
2014-09-12A32101.399980-478Yes
2014-09-28B7371.45110000No
2014-10-08B7371.40100000No
2014-12-21A32101.299035-50No
2015-04-21A32101.4918625-361No
2016-05-02A3211.3010286-586No
2016-05-30B73701.549386-251Yes
2017-07-11B73701.429054-101Charter
(pireps marked green are flown by you)

Route map